Terminal Aerodrome Forecast
Issued by NWS Sioux Falls, SD

Home | Current Version | Previous Version | Graphics & Text | Print | Product List | Glossary Off
Versions: 1 2 3 4 5 6 7 8 9 10 11 12 13 14 15

000
FTUS43 KFSD 240900 AAA
TAFHON
TAF AMD
KHON 240949Z 2410/2506 36006KT P6SM BKN120
     FM241400 32014G22KT P6SM SKC
     FM241900 32018G28KT P6SM SKC
     FM250100 32008KT P6SM SKC=

USA.gov is the U.S. government's official web portal to all federal, state and local government web resources and services.